Time;durP1;ratioP1;P1;durP2;ratioP2;P2;SDS_P1;SDS_P2;PMS_P1;PMS_P2;Temp;Humidity;BMP_temperature;BMP_pressure;BME280_temperature;BME280_humidity;BME280_pressure;Samples;Min_cycle;Max_cycle;Signal;HPM_P1;HPM_P2
2022/08/21 08:21:06;;;;;;;2.83;1.10;;;;;;;;;;10537100;27;20856;-79
2022/08/21 08:26:09;;;;;;;4.07;1.33;;;;;;;;;;10512568;28;20446;-76
2022/08/21 08:31:12;;;;;;;1.90;1.15;;;;;;;;;;10509716;28;20123;-78
2022/08/21 08:36:19;;;;;;;2.85;0.90;;;;;;;;;;10502994;28;20044;-77
2022/08/21 08:41:23;;;;;;;1.38;0.80;;;;;;;;;;10511660;28;20086;-76
2022/08/21 08:46:32;;;;;;;2.78;0.88;;;;;;;;;;10509921;28;20171;-77
2022/08/21 08:51:47;;;;;;;3.30;0.98;;;;;;;;;;10510306;28;20660;-76
2022/08/21 08:56:52;;;;;;;1.65;0.73;;;;;;;;;;10510569;28;20115;-76
2022/08/21 09:01:56;;;;;;;1.80;0.82;;;;;;;;;;10508811;28;20040;-76
2022/08/21 09:07:10;;;;;;;2.55;1.00;;;;;;;;;;10509577;28;20048;-76
2022/08/21 09:12:25;;;;;;;3.83;1.38;;;;;;;;;;10509121;28;20082;-76
2022/08/21 09:17:40;;;;;;;2.75;1.02;;;;;;;;;;10501628;28;20135;-76
2022/08/21 09:22:58;;;;;;;4.20;1.20;;;;;;;;;;10507016;28;20554;-76
2022/08/21 09:28:02;;;;;;;2.78;1.30;;;;;;;;;;10469320;28;20037;-76
2022/08/21 09:33:06;;;;;;;2.03;0.88;;;;;;;;;;10412605;28;20136;-76
2022/08/21 09:38:11;;;;;;;1.38;0.88;;;;;;;;;;10419968;28;20071;-76
2022/08/21 09:43:19;;;;;;;3.67;1.67;;;;;;;;;;10444572;28;20874;-76
2022/08/21 09:48:25;;;;;;;3.50;1.30;;;;;;;;;;10449860;28;20047;-76
2022/08/21 09:53:32;;;;;;;2.15;0.80;;;;;;;;;;10447570;28;20045;-76
2022/08/21 09:58:39;;;;;;;3.38;1.33;;;;;;;;;;10456973;28;20037;-76
2022/08/21 10:03:42;;;;;;;2.73;1.00;;;;;;;;;;10457181;28;20047;-76
2022/08/21 10:08:47;;;;;;;2.25;1.17;;;;;;;;;;10455257;28;20041;-77
2022/08/21 10:14:06;;;;;;;2.25;1.10;;;;;;;;;;10444684;28;20072;-76
2022/08/21 10:19:19;;;;;;;1.70;0.60;;;;;;;;;;10440900;28;20037;-77
2022/08/21 10:24:32;;;;;;;0.80;0.47;;;;;;;;;;10459522;28;20040;-76
2022/08/21 10:29:45;;;;;;;4.07;1.10;;;;;;;;;;10442427;28;20045;-76
2022/08/21 10:34:57;;;;;;;3.60;0.93;;;;;;;;;;10441648;28;20269;-77
2022/08/21 10:40:15;;;;;;;2.17;0.80;;;;;;;;;;10452405;28;20436;-76
2022/08/21 10:45:30;;;;;;;3.60;1.05;;;;;;;;;;10452361;28;20127;-77
2022/08/21 10:50:43;;;;;;;1.92;0.90;;;;;;;;;;10451489;28;20045;-76
2022/08/21 10:55:56;;;;;;;1.48;0.55;;;;;;;;;;10446454;28;20067;-80
2022/08/21 11:01:08;;;;;;;1.15;0.68;;;;;;;;;;10451929;28;20047;-76
2022/08/21 11:06:16;;;;;;;1.88;0.70;;;;;;;;;;10452414;28;20094;-77
2022/08/21 11:11:26;;;;;;;1.15;0.43;;;;;;;;;;10453444;28;20118;-77
2022/08/21 11:16:36;;;;;;;0.52;0.45;;;;;;;;;;10454016;28;20403;-76
2022/08/21 11:21:45;;;;;;;1.17;0.40;;;;;;;;;;10457376;28;20060;-77
2022/08/21 11:26:58;;;;;;;1.90;0.55;;;;;;;;;;10452355;28;20847;-76
2022/08/21 11:32:25;;;;;;;2.78;0.90;;;;;;;;;;10458785;28;20037;-77
2022/08/21 11:37:41;;;;;;;2.40;1.08;;;;;;;;;;10444194;28;20173;-77
2022/08/21 11:42:56;;;;;;;1.00;0.73;;;;;;;;;;10452216;28;20527;-77
2022/08/21 11:48:09;;;;;;;3.38;1.20;;;;;;;;;;10457361;28;20171;-77
2022/08/21 11:53:17;;;;;;;1.85;1.10;;;;;;;;;;10452734;28;20577;-77
2022/08/21 11:58:26;;;;;;;1.27;0.70;;;;;;;;;;10443244;28;20063;-77
2022/08/21 12:03:33;;;;;;;1.27;0.55;;;;;;;;;;10453936;28;20044;-77
2022/08/21 12:08:38;;;;;;;0.95;0.60;;;;;;;;;;10449201;28;20043;-76
2022/08/21 12:13:56;;;;;;;3.35;0.98;;;;;;;;;;10445570;28;20049;-77
2022/08/21 12:19:09;;;;;;;0.93;0.60;;;;;;;;;;10443906;28;20407;-77
2022/08/21 12:24:32;;;;;;;1.27;0.47;;;;;;;;;;10450807;28;20124;-77
2022/08/21 12:29:38;;;;;;;1.80;0.50;;;;;;;;;;10456615;28;20072;-77
2022/08/21 12:34:49;;;;;;;3.25;0.60;;;;;;;;;;10451531;28;20128;-77
2022/08/21 12:39:54;;;;;;;1.00;0.40;;;;;;;;;;10443665;28;20076;-76
2022/08/21 12:45:03;;;;;;;1.92;1.00;;;;;;;;;;10457141;28;20503;-77
2022/08/21 12:50:12;;;;;;;1.63;0.63;;;;;;;;;;10450722;28;20164;-77
2022/08/21 12:55:17;;;;;;;0.73;0.40;;;;;;;;;;10442777;28;20040;-77
2022/08/21 13:00:23;;;;;;;2.63;0.90;;;;;;;;;;10450431;28;20064;-77
2022/08/21 13:05:33;;;;;;;2.13;0.60;;;;;;;;;;10456806;28;20096;-78
2022/08/21 13:10:38;;;;;;;1.80;0.55;;;;;;;;;;10459015;28;20064;-78
2022/08/21 13:15:43;;;;;;;0.77;0.32;;;;;;;;;;10463970;28;20065;-77
2022/08/21 13:20:47;;;;;;;0.55;0.40;;;;;;;;;;10457223;28;20052;-77
2022/08/21 13:25:50;;;;;;;2.42;0.95;;;;;;;;;;10463555;28;20064;-77
2022/08/21 13:30:56;;;;;;;1.58;0.82;;;;;;;;;;10465841;28;20123;-77
2022/08/21 13:36:05;;;;;;;1.70;0.40;;;;;;;;;;10459558;28;20057;-77
2022/08/21 13:41:15;;;;;;;0.35;0.30;;;;;;;;;;10463445;28;20144;-78
2022/08/21 13:46:24;;;;;;;0.85;0.30;;;;;;;;;;10463895;28;20057;-77
2022/08/21 13:51:28;;;;;;;1.10;0.47;;;;;;;;;;10463111;28;20097;-77
2022/08/21 13:56:34;;;;;;;2.50;0.65;;;;;;;;;;10456134;28;20048;-77
2022/08/21 14:01:48;;;;;;;0.90;0.40;;;;;;;;;;10459855;28;20055;-77
2022/08/21 14:06:52;;;;;;;0.90;0.50;;;;;;;;;;10466911;28;20041;-77
2022/08/21 14:11:58;;;;;;;0.73;0.50;;;;;;;;;;10452707;28;20704;-77
2022/08/21 14:17:04;;;;;;;1.15;0.43;;;;;;;;;;10457536;28;20516;-77
2022/08/21 14:22:29;;;;;;;0.73;0.30;;;;;;;;;;10454116;28;20467;-77
2022/08/21 14:27:32;;;;;;;;;;;;;;;;;;10455687;28;20068;-77
2022/08/21 14:32:40;;;;;;;1.10;0.75;;;;;;;;;;10453442;28;19956;-77
2022/08/21 14:37:44;;;;;;;0.45;0.40;;;;;;;;;;10458431;28;20116;-77
2022/08/21 14:42:49;;;;;;;0.60;0.50;;;;;;;;;;10457747;28;20129;-77
2022/08/21 14:47:54;;;;;;;0.75;0.57;;;;;;;;;;10457645;28;20366;-77
2022/08/21 14:52:57;;;;;;;0.80;0.60;;;;;;;;;;10455772;28;20041;-77
2022/08/21 14:58:02;;;;;;;0.55;0.20;;;;;;;;;;10459240;28;20041;-78
2022/08/21 15:03:06;;;;;;;1.15;0.30;;;;;;;;;;10451454;28;20047;-77
2022/08/21 15:08:10;;;;;;;;;;;;;;;;;;10460503;28;20045;-77
2022/08/21 15:13:13;;;;;;;0.57;0.30;;;;;;;;;;10445444;28;20019;-77
2022/08/21 15:18:18;;;;;;;1.25;0.68;;;;;;;;;;10452687;28;20044;-77
2022/08/21 15:23:21;;;;;;;;;;;;;;;;;;10452561;28;20075;-76
2022/08/21 15:28:25;;;;;;;1.17;0.20;;;;;;;;;;10553648;28;20422;-77
2022/08/21 15:33:30;;;;;;;2.97;0.95;;;;;;;;;;10562113;28;20063;-77
2022/08/21 15:38:33;;;;;;;1.92;0.60;;;;;;;;;;10542167;28;20379;-77
2022/08/21 15:43:45;;;;;;;0.95;0.52;;;;;;;;;;10560174;28;20047;-76
2022/08/21 15:48:49;;;;;;;1.27;0.43;;;;;;;;;;10561028;28;20059;-77
2022/08/21 15:53:53;;;;;;;1.02;0.50;;;;;;;;;;10560262;28;20498;-77
2022/08/21 15:59:01;;;;;;;1.08;0.52;;;;;;;;;;10542162;28;20435;-77
2022/08/21 16:04:06;;;;;;;1.17;0.40;;;;;;;;;;10559516;28;20066;-77
2022/08/21 16:09:10;;;;;;;0.80;0.40;;;;;;;;;;10560861;28;20084;-77
2022/08/21 16:14:14;;;;;;;0.80;0.50;;;;;;;;;;10541772;28;20039;-77
2022/08/21 16:19:20;;;;;;;1.07;0.40;;;;;;;;;;10559775;28;20135;-77
2022/08/21 16:24:23;;;;;;;0.70;0.35;;;;;;;;;;10537515;28;20039;-77
2022/08/21 16:29:31;;;;;;;1.60;0.30;;;;;;;;;;10560694;28;20620;-77
2022/08/21 16:34:36;;;;;;;1.27;0.50;;;;;;;;;;10556730;28;20048;-77
2022/08/21 16:39:40;;;;;;;0.65;0.30;;;;;;;;;;10566065;28;20130;-77
2022/08/21 16:44:43;;;;;;;1.38;0.40;;;;;;;;;;10559683;28;20036;-79
2022/08/21 16:49:49;;;;;;;0.82;0.40;;;;;;;;;;10553412;28;20527;-77
2022/08/21 16:54:56;;;;;;;0.90;0.50;;;;;;;;;;10558650;28;20036;-78
2022/08/21 17:00:00;;;;;;;0.77;0.47;;;;;;;;;;10577067;28;20070;-78
2022/08/21 17:05:08;;;;;;;3.78;0.80;;;;;;;;;;10533620;28;20487;-76
2022/08/21 17:10:13;;;;;;;0.80;0.45;;;;;;;;;;10532585;28;20399;-78
2022/08/21 17:15:21;;;;;;;0.38;0.38;;;;;;;;;;10531790;28;20453;-74
2022/08/21 17:20:26;;;;;;;1.25;0.40;;;;;;;;;;10526899;28;20048;-77
2022/08/21 17:25:30;;;;;;;0.50;0.30;;;;;;;;;;10504052;28;20480;-77
2022/08/21 17:30:33;;;;;;;1.02;0.30;;;;;;;;;;10519706;28;20124;-77
2022/08/21 17:35:38;;;;;;;0.60;0.30;;;;;;;;;;10523752;28;20083;-78
2022/08/21 17:40:42;;;;;;;0.50;0.32;;;;;;;;;;10527481;28;20127;-76
2022/08/21 17:45:45;;;;;;;2.90;0.57;;;;;;;;;;10504778;28;20074;-75
2022/08/21 17:50:53;;;;;;;0.57;0.38;;;;;;;;;;10527466;28;20119;-76
2022/08/21 17:55:56;;;;;;;0.43;0.30;;;;;;;;;;10526708;28;20042;-78
2022/08/21 18:01:02;;;;;;;0.65;0.40;;;;;;;;;;10526231;28;20325;-77
2022/08/21 18:06:07;;;;;;;2.42;0.70;;;;;;;;;;10519846;28;20044;-76
2022/08/21 18:11:11;;;;;;;1.05;0.50;;;;;;;;;;10522809;28;20476;-77
2022/08/21 18:16:18;;;;;;;1.30;0.45;;;;;;;;;;10519119;28;20123;-76
2022/08/21 18:21:24;;;;;;;0.77;0.30;;;;;;;;;;10509439;28;20432;-78
2022/08/21 18:26:31;;;;;;;1.83;0.50;;;;;;;;;;10519664;28;20103;-77
2022/08/21 18:31:36;;;;;;;1.95;0.65;;;;;;;;;;10517943;28;20162;-77
2022/08/21 18:36:43;;;;;;;;;;;;;;;;;;10519884;28;20043;-77
2022/08/21 18:41:47;;;;;;;0.80;0.30;;;;;;;;;;10516780;28;20409;-78
2022/08/21 18:46:54;;;;;;;0.75;0.50;;;;;;;;;;10493961;28;20044;-77
2022/08/21 18:51:59;;;;;;;1.92;0.80;;;;;;;;;;10522208;28;20465;-77
2022/08/21 18:57:02;;;;;;;1.05;0.47;;;;;;;;;;10516445;28;20039;-77
2022/08/21 19:02:06;;;;;;;1.17;0.45;;;;;;;;;;10503629;28;20067;-77
2022/08/21 19:07:12;;;;;;;1.58;0.60;;;;;;;;;;10523249;28;20037;-78
2022/08/21 19:12:21;;;;;;;0.30;0.30;;;;;;;;;;10515999;28;20085;-77
2022/08/21 19:17:25;;;;;;;1.70;0.73;;;;;;;;;;10519918;28;20063;-77
2022/08/21 19:22:30;;;;;;;1.33;0.57;;;;;;;;;;10520126;28;20044;-76
2022/08/21 19:27:34;;;;;;;2.83;0.70;;;;;;;;;;10519558;28;20131;-76
2022/08/21 19:32:38;;;;;;;2.90;0.75;;;;;;;;;;10520272;28;20051;-77
2022/08/21 19:37:43;;;;;;;1.48;0.60;;;;;;;;;;10495191;28;20579;-77
2022/08/21 19:42:47;;;;;;;0.67;0.37;;;;;;;;;;10518809;28;20028;-77
2022/08/21 19:47:51;;;;;;;0.75;0.38;;;;;;;;;;10501343;28;20130;-76
2022/08/21 19:52:56;;;;;;;1.80;0.65;;;;;;;;;;10518876;28;20046;-77
2022/08/21 19:58:08;;;;;;;1.30;0.50;;;;;;;;;;10500998;28;20056;-77
2022/08/21 20:03:12;;;;;;;1.05;0.57;;;;;;;;;;10514875;28;20085;-77
2022/08/21 20:08:16;;;;;;;1.00;0.70;;;;;;;;;;10510375;28;20504;-76
2022/08/21 20:13:22;;;;;;;1.15;0.50;;;;;;;;;;10518871;28;20132;-76
2022/08/21 20:18:26;;;;;;;1.88;0.55;;;;;;;;;;10517904;28;20070;-76
2022/08/21 20:23:31;;;;;;;1.25;0.65;;;;;;;;;;10493010;28;20139;-77
2022/08/21 20:28:35;;;;;;;1.50;0.70;;;;;;;;;;10500370;28;20076;-77
2022/08/21 20:33:39;;;;;;;1.52;0.68;;;;;;;;;;10514509;28;20037;-77
2022/08/21 20:38:43;;;;;;;2.78;0.60;;;;;;;;;;10518686;28;20377;-77
2022/08/21 20:43:47;;;;;;;1.10;0.60;;;;;;;;;;10519279;28;20090;-77
2022/08/21 20:48:52;;;;;;;0.93;0.55;;;;;;;;;;10520818;28;20139;-78
2022/08/21 20:54:04;;;;;;;2.20;0.53;;;;;;;;;;10524264;28;20047;-76
2022/08/21 20:59:19;;;;;;;0.60;0.50;;;;;;;;;;10523782;28;20452;-78
2022/08/21 21:04:33;;;;;;;2.13;0.87;;;;;;;;;;10514150;28;20066;-77
2022/08/21 21:09:42;;;;;;;0.65;0.50;;;;;;;;;;10519839;28;20074;-76
2022/08/21 21:14:48;;;;;;;1.48;0.60;;;;;;;;;;10518761;28;20039;-77
2022/08/21 21:19:56;;;;;;;1.65;0.57;;;;;;;;;;10519391;28;20045;-77
2022/08/21 21:25:09;;;;;;;1.17;0.57;;;;;;;;;;10520306;28;20085;-77
2022/08/21 21:30:17;;;;;;;1.58;0.57;;;;;;;;;;10503287;28;20040;-77
2022/08/21 21:35:25;;;;;;;2.75;0.80;;;;;;;;;;10519382;28;20040;-77
2022/08/21 21:40:42;;;;;;;3.25;0.70;;;;;;;;;;10525661;28;20135;-77
2022/08/21 21:46:07;;;;;;;1.20;0.70;;;;;;;;;;10525593;28;20040;-77
2022/08/21 21:51:18;;;;;;;0.70;0.40;;;;;;;;;;10539715;28;20055;-76
2022/08/21 21:56:32;;;;;;;0.73;0.47;;;;;;;;;;10514281;28;20131;-76
